Allison, Texas
Current Conditions -  °F | °C
As of 1:55 AM on Friday 31 Oct 2014 (Local Time) from KHHF Reporting Station
Clear Clear  
Wind Chill: 39°   Ceiling: Unl
Heat Index: 39°   Visibility: NA
Dew Point: 34°   Wind: 0mph
Humidity: 83%   Direction: NA
Pressure: 30.36"   Gusts: NA
Location:  35.61°N, 100.1°W
Report Text: KHHF 310655Z AUTO 00000KT CLR 04/01 A3036 RMK AO2 T00370011 PWINO
Loading
Personal Weather Stations






























Interactive Weather Map
Tropical Storm Tracking
New forecast layout! Learn more

10-Day Weather Forecast

Advertisements
Track Severe Weather on mobile